Time;durP1;ratioP1;P1;durP2;ratioP2;P2;SDS_P1;SDS_P2;PMS_P1;PMS_P2;Temp;Humidity;BMP_temperature;BMP_pressure;BME280_temperature;BME280_humidity;BME280_pressure;Samples;Min_cycle;Max_cycle;Signal;HPM_P1;HPM_P2
2023/12/06 00:02:04;;;;;;;11.68;6.60;;;1.30;99.90;;;;;;5050140;28;20078;-79
2023/12/06 00:04:31;;;;;;;9.70;6.55;;;1.40;99.90;;;;;;5040990;28;20025;-81
2023/12/06 00:06:56;;;;;;;10.55;6.53;;;1.40;99.90;;;;;;5062548;28;20090;-77
2023/12/06 00:09:23;;;;;;;10.27;6.53;;;1.40;99.90;;;;;;5057660;28;20068;-77
2023/12/06 00:11:49;;;;;;;10.73;6.45;;;1.40;99.90;;;;;;5065877;28;20063;-78
2023/12/06 00:14:14;;;;;;;12.23;8.07;;;1.40;99.90;;;;;;5053839;28;20098;-78
2023/12/06 00:16:41;;;;;;;10.82;7.03;;;1.40;99.90;;;;;;5056452;28;20025;-77
2023/12/06 00:19:07;;;;;;;15.05;7.45;;;1.40;99.90;;;;;;5061630;28;20025;-80
2023/12/06 00:21:33;;;;;;;13.38;7.10;;;1.50;99.90;;;;;;5050466;28;20043;-80
2023/12/06 00:23:59;;;;;;;12.82;7.20;;;1.40;99.90;;;;;;5055459;28;20275;-77
2023/12/06 00:26:25;;;;;;;10.20;7.05;;;1.40;99.90;;;;;;5047262;28;20044;-79
2023/12/06 00:28:53;;;;;;;12.82;6.50;;;1.40;99.90;;;;;;5051408;28;20623;-78
2023/12/06 00:31:19;;;;;;;11.07;6.57;;;1.40;99.90;;;;;;5061783;28;20090;-79
2023/12/06 00:33:45;;;;;;;9.88;6.82;;;1.40;99.90;;;;;;5058327;28;20040;-80
2023/12/06 00:36:10;;;;;;;11.38;6.82;;;1.30;99.90;;;;;;5057027;28;20017;-81
2023/12/06 00:38:36;;;;;;;11.32;6.82;;;1.30;99.90;;;;;;5055197;28;20549;-81
2023/12/06 00:41:02;;;;;;;9.80;6.65;;;1.30;99.90;;;;;;5048823;28;20041;-81
2023/12/06 00:43:28;;;;;;;9.77;6.32;;;1.30;99.90;;;;;;5051851;28;20040;-80
2023/12/06 00:45:54;;;;;;;12.35;7.20;;;1.30;99.90;;;;;;5052453;28;20029;-81
2023/12/06 00:48:20;;;;;;;11.07;6.18;;;1.40;99.90;;;;;;5053520;28;20029;-82
2023/12/06 00:50:45;;;;;;;8.82;5.90;;;1.40;99.90;;;;;;5044897;28;20353;-81
2023/12/06 00:53:11;;;;;;;11.02;6.35;;;1.40;99.90;;;;;;5067119;28;20112;-81
2023/12/06 00:55:37;;;;;;;8.48;5.63;;;1.40;99.90;;;;;;5059378;28;20398;-81
2023/12/06 00:58:08;;;;;;;12.23;6.10;;;1.40;99.90;;;;;;5037713;28;20118;-81
2023/12/06 01:00:33;;;;;;;9.45;6.18;;;1.30;99.90;;;;;;5059216;28;20454;-81
2023/12/06 01:02:59;;;;;;;8.63;5.82;;;1.30;99.90;;;;;;5040261;28;20082;-81
2023/12/06 01:05:25;;;;;;;9.57;5.95;;;1.30;99.90;;;;;;5057096;28;20056;-82
2023/12/06 01:07:50;;;;;;;7.40;5.30;;;1.30;99.90;;;;;;5035586;28;20036;-82
2023/12/06 01:10:16;;;;;;;7.55;5.32;;;1.30;99.90;;;;;;5048390;28;20589;-83
2023/12/06 01:12:42;;;;;;;12.15;6.15;;;1.20;99.90;;;;;;5067585;28;20032;-83
2023/12/06 01:15:09;;;;;;;7.22;5.10;;;1.20;99.90;;;;;;5066814;28;20119;-83
2023/12/06 01:17:34;;;;;;;10.10;6.10;;;1.20;99.90;;;;;;5066363;28;20063;-80
2023/12/06 01:20:00;;;;;;;8.93;5.57;;;1.20;99.90;;;;;;5050238;28;20510;-83
2023/12/06 01:22:26;;;;;;;11.13;5.85;;;1.20;99.90;;;;;;5036975;28;20025;-81
2023/12/06 01:24:57;;;;;;;9.35;5.40;;;1.20;99.90;;;;;;5046496;28;20395;-83
2023/12/06 01:27:23;;;;;;;7.70;5.15;;;1.20;99.90;;;;;;5049267;28;20082;-82
2023/12/06 01:29:49;;;;;;;7.22;5.35;;;1.20;99.90;;;;;;5054423;28;20025;-84
2023/12/06 01:32:14;;;;;;;6.88;4.47;;;1.20;99.90;;;;;;5050682;28;20769;-83
2023/12/06 01:34:40;;;;;;;6.80;4.90;;;1.20;99.90;;;;;;5053341;28;20048;-83
2023/12/06 01:37:06;;;;;;;6.43;4.57;;;1.20;99.90;;;;;;5050612;28;20024;-81
2023/12/06 01:39:31;;;;;;;7.68;4.72;;;1.20;99.90;;;;;;5052388;28;20039;-82
2023/12/06 01:41:57;;;;;;;6.03;4.57;;;1.20;99.90;;;;;;5032602;28;20086;-81
2023/12/06 01:44:23;;;;;;;6.72;3.78;;;1.20;99.90;;;;;;5048659;28;20056;-80
2023/12/06 01:46:49;;;;;;;5.57;3.83;;;1.20;99.90;;;;;;5062296;28;20035;-80
2023/12/06 01:49:15;;;;;;;5.63;4.20;;;1.20;99.90;;;;;;5068285;28;20041;-80
2023/12/06 01:51:41;;;;;;;6.43;4.15;;;1.20;99.90;;;;;;5062834;28;20029;-80
2023/12/06 01:54:08;;;;;;;5.03;3.40;;;1.20;99.90;;;;;;5057525;28;20036;-81
2023/12/06 01:56:35;;;;;;;5.47;3.50;;;1.20;99.90;;;;;;5051868;28;20040;-80
2023/12/06 01:59:02;;;;;;;5.53;4.10;;;1.20;99.90;;;;;;5058380;28;20045;-82
2023/12/06 02:01:28;;;;;;;6.45;4.03;;;1.20;99.90;;;;;;5064889;28;20038;-80
2023/12/06 02:03:54;;;;;;;5.82;3.53;;;1.20;99.90;;;;;;5061289;28;20033;-81
2023/12/06 02:06:20;;;;;;;3.92;3.17;;;1.20;99.90;;;;;;5053473;28;20102;-80
2023/12/06 02:08:47;;;;;;;6.43;3.40;;;1.20;99.90;;;;;;5064085;28;20048;-80
2023/12/06 02:11:13;;;;;;;6.20;3.67;;;1.20;99.90;;;;;;5048198;28;20080;-81
2023/12/06 02:13:39;;;;;;;5.75;3.33;;;1.10;99.90;;;;;;5061085;28;20051;-81
2023/12/06 02:16:06;;;;;;;4.43;3.20;;;1.20;99.90;;;;;;5060447;28;20025;-80
2023/12/06 02:18:32;;;;;;;3.85;3.22;;;1.10;99.90;;;;;;5052195;28;20037;-82
2023/12/06 02:20:59;;;;;;;3.53;3.20;;;1.10;99.90;;;;;;5062708;28;20037;-81
2023/12/06 02:23:31;;;;;;;3.97;2.75;;;1.20;99.90;;;;;;5053222;28;20037;-80
2023/12/06 02:25:57;;;;;;;3.40;2.90;;;1.10;99.90;;;;;;5049505;28;20021;-81
2023/12/06 02:28:23;;;;;;;3.90;3.03;;;1.10;99.90;;;;;;5062699;28;20033;-81
2023/12/06 02:30:49;;;;;;;4.05;3.08;;;1.20;99.90;;;;;;5061257;28;20103;-81
2023/12/06 02:33:14;;;;;;;3.60;2.63;;;1.20;99.90;;;;;;5059573;28;21394;-80
2023/12/06 02:35:47;;;;;;;3.78;2.92;;;1.20;99.90;;;;;;5055148;28;20037;-81
2023/12/06 02:38:14;;;;;;;4.07;2.92;;;1.10;99.90;;;;;;5063401;28;20028;-80
2023/12/06 02:40:43;;;;;;;5.13;3.25;;;1.10;99.90;;;;;;5042987;28;20037;-81
2023/12/06 02:43:27;;;;;;;3.03;2.72;;;1.10;99.90;;;;;;5058297;28;20699;-81
2023/12/06 02:45:53;;;;;;;3.60;2.90;;;1.10;99.90;;;;;;5049155;28;20029;-81
2023/12/06 02:48:19;;;;;;;4.45;3.15;;;1.10;99.90;;;;;;5054030;28;20165;-82
2023/12/06 02:50:45;;;;;;;2.85;2.60;;;1.10;99.90;;;;;;5034232;28;20037;-82
2023/12/06 02:53:10;;;;;;;3.40;3.10;;;1.10;99.90;;;;;;5041024;28;20017;-81
2023/12/06 02:55:36;;;;;;;3.55;2.88;;;1.10;99.90;;;;;;5057986;28;20028;-80
2023/12/06 02:58:02;;;;;;;3.28;2.92;;;1.10;99.90;;;;;;5035612;28;20033;-80
2023/12/06 03:00:28;;;;;;;4.20;3.20;;;1.10;99.90;;;;;;5039900;28;20060;-81
2023/12/06 03:02:53;;;;;;;3.35;2.90;;;1.10;99.90;;;;;;5046453;28;20021;-81
2023/12/06 03:05:19;;;;;;;3.63;3.10;;;1.10;99.90;;;;;;5050806;28;20086;-79
2023/12/06 03:07:45;;;;;;;4.07;2.90;;;1.10;99.90;;;;;;5061312;28;20028;-81
2023/12/06 03:10:11;;;;;;;3.38;2.70;;;1.10;99.90;;;;;;5043015;28;20039;-80
2023/12/06 03:12:36;;;;;;;3.13;2.55;;;1.10;99.90;;;;;;5056634;28;20483;-81
2023/12/06 03:15:02;;;;;;;3.30;2.50;;;1.10;99.90;;;;;;5053557;28;20082;-80
2023/12/06 03:17:28;;;;;;;3.40;2.85;;;1.10;99.90;;;;;;5044698;28;20033;-79
2023/12/06 03:19:55;;;;;;;4.63;2.72;;;1.10;99.90;;;;;;5047974;28;20029;-79
2023/12/06 03:22:21;;;;;;;3.53;3.05;;;1.10;99.90;;;;;;5049299;28;20124;-79
2023/12/06 03:24:47;;;;;;;3.65;2.88;;;1.10;99.90;;;;;;5047156;28;20053;-80
2023/12/06 03:27:12;;;;;;;2.95;2.67;;;1.10;99.90;;;;;;5054867;28;20036;-79
2023/12/06 03:29:38;;;;;;;3.30;2.53;;;1.10;99.90;;;;;;5051426;28;20784;-81
2023/12/06 03:32:04;;;;;;;3.67;2.75;;;1.10;99.90;;;;;;5030418;28;20021;-79
2023/12/06 03:34:30;;;;;;;3.53;2.78;;;1.10;99.90;;;;;;5052043;28;20051;-79
2023/12/06 03:36:55;;;;;;;3.70;2.80;;;1.10;99.90;;;;;;5029055;28;20563;-80
2023/12/06 03:39:21;;;;;;;3.92;2.60;;;1.10;99.90;;;;;;5059118;28;20032;-82
2023/12/06 03:41:47;;;;;;;3.40;2.63;;;1.10;99.90;;;;;;5064890;28;20120;-81
2023/12/06 03:44:13;;;;;;;2.63;2.33;;;1.10;99.90;;;;;;5059577;28;20075;-83
2023/12/06 03:46:39;;;;;;;2.88;2.50;;;1.10;99.90;;;;;;5043173;28;20103;-81
2023/12/06 03:49:04;;;;;;;3.28;2.45;;;1.20;99.90;;;;;;5047563;28;20035;-80
2023/12/06 03:51:30;;;;;;;2.92;2.38;;;1.10;99.90;;;;;;5068018;28;20468;-82
2023/12/06 03:53:56;;;;;;;2.55;2.25;;;1.10;99.90;;;;;;5061669;28;20112;-82
2023/12/06 03:56:22;;;;;;;2.80;2.50;;;1.10;99.90;;;;;;5053830;28;20032;-82
2023/12/06 03:58:48;;;;;;;3.08;2.47;;;1.10;99.90;;;;;;5062738;28;20037;-81
2023/12/06 04:01:13;;;;;;;3.75;2.47;;;1.10;99.90;;;;;;5051176;28;20037;-82
2023/12/06 04:03:42;;;;;;;3.60;2.70;;;1.10;99.90;;;;;;5051819;28;20036;-83
2023/12/06 04:06:08;;;;;;;3.20;2.85;;;1.10;99.90;;;;;;5049920;28;20033;-79
2023/12/06 04:08:34;;;;;;;2.67;2.40;;;1.20;99.90;;;;;;5068290;28;20505;-80
2023/12/06 04:10:59;;;;;;;2.55;2.35;;;1.20;99.90;;;;;;5060585;28;20045;-81
2023/12/06 04:13:25;;;;;;;2.60;2.40;;;1.10;99.90;;;;;;5039905;28;20029;-84
2023/12/06 04:15:52;;;;;;;2.50;2.30;;;1.10;99.90;;;;;;5042923;28;20048;-84
2023/12/06 04:18:21;;;;;;;2.28;2.08;;;1.20;99.90;;;;;;5011258;28;20029;-82
2023/12/06 04:20:47;;;;;;;2.75;2.38;;;1.20;99.90;;;;;;5042644;28;20036;-83
2023/12/06 04:23:12;;;;;;;2.85;2.22;;;1.20;99.90;;;;;;5034916;28;20102;-81
2023/12/06 04:25:38;;;;;;;2.60;2.30;;;1.20;99.90;;;;;;5054303;28;20040;-81
2023/12/06 04:28:04;;;;;;;2.92;2.55;;;1.20;99.90;;;;;;5046258;28;20029;-83
2023/12/06 04:30:30;;;;;;;2.42;2.22;;;1.20;99.90;;;;;;5037425;28;20021;-81
2023/12/06 04:32:55;;;;;;;2.72;2.47;;;1.20;99.90;;;;;;5044546;28;20040;-80
2023/12/06 04:35:21;;;;;;;2.47;2.28;;;1.20;99.90;;;;;;5036753;28;20074;-84
2023/12/06 04:37:47;;;;;;;2.90;2.60;;;1.20;99.90;;;;;;5054694;28;20495;-83
2023/12/06 04:40:13;;;;;;;3.08;2.55;;;1.20;99.90;;;;;;5029297;28;20120;-81
2023/12/06 04:42:39;;;;;;;5.50;2.30;;;1.20;99.90;;;;;;5054975;28;20024;-81
2023/12/06 04:45:05;;;;;;;2.58;2.30;;;1.20;99.90;;;;;;5052508;28;20501;-81
2023/12/06 04:47:30;;;;;;;2.90;2.55;;;1.20;99.90;;;;;;5067843;28;20033;-81
2023/12/06 04:49:56;;;;;;;3.03;2.28;;;1.10;99.90;;;;;;5034814;28;20028;-82
2023/12/06 04:52:22;;;;;;;2.92;2.38;;;1.10;99.90;;;;;;5027619;28;20398;-82
2023/12/06 04:54:48;;;;;;;3.47;2.28;;;1.10;99.90;;;;;;5017518;28;20053;-81
2023/12/06 04:57:28;;;;;;;3.08;2.50;;;1.10;99.90;;;;;;5054352;28;20102;-81
2023/12/06 04:59:57;;;;;;;4.07;2.00;;;1.10;99.90;;;;;;5053696;28;20024;-80
2023/12/06 05:02:29;;;;;;;2.45;2.25;;;1.10;99.90;;;;;;5059907;28;20017;-81
2023/12/06 05:04:58;;;;;;;2.47;2.25;;;1.10;99.90;;;;;;5054825;28;20040;-81
2023/12/06 05:07:25;;;;;;;2.63;2.10;;;1.10;99.90;;;;;;5041735;28;20025;-81
2023/12/06 05:09:51;;;;;;;2.50;2.17;;;1.10;99.90;;;;;;5018597;28;20406;-82
2023/12/06 05:12:22;;;;;;;2.65;2.45;;;1.10;99.90;;;;;;5061558;28;20028;-83
2023/12/06 05:14:48;;;;;;;3.20;2.58;;;1.10;99.90;;;;;;5071003;28;20112;-82
2023/12/06 05:17:16;;;;;;;2.53;2.33;;;1.10;99.90;;;;;;5046643;28;20089;-83
2023/12/06 05:19:42;;;;;;;3.85;2.00;;;1.10;99.90;;;;;;5046672;28;20695;-80
2023/12/06 05:22:08;;;;;;;3.13;2.00;;;1.10;99.90;;;;;;4994720;28;20033;-83
2023/12/06 05:24:34;;;;;;;3.70;2.10;;;1.10;99.90;;;;;;5028095;28;20131;-81
2023/12/06 05:27:00;;;;;;;2.65;2.08;;;1.10;99.90;;;;;;5050270;28;20068;-82
2023/12/06 05:29:25;;;;;;;2.58;2.20;;;1.10;99.90;;;;;;5041835;28;20082;-80
2023/12/06 05:31:51;;;;;;;2.47;2.25;;;1.10;99.90;;;;;;5050717;28;20036;-82
2023/12/06 05:34:19;;;;;;;2.78;2.35;;;1.10;99.90;;;;;;5037217;28;20048;-81
2023/12/06 05:36:44;;;;;;;2.35;2.15;;;1.10;99.90;;;;;;5054853;28;20502;-79
2023/12/06 05:39:10;;;;;;;2.58;2.35;;;1.10;99.90;;;;;;5058181;28;20036;-82
2023/12/06 05:41:36;;;;;;;2.58;2.03;;;1.10;99.90;;;;;;5051327;28;20124;-81
2023/12/06 05:44:05;;;;;;;2.35;1.80;;;1.10;99.90;;;;;;5039698;28;20032;-81
2023/12/06 05:46:31;;;;;;;11.68;2.90;;;1.10;99.90;;;;;;5063070;28;20052;-85
2023/12/06 05:48:56;;;;;;;2.50;2.25;;;1.10;99.90;;;;;;5057944;28;20028;-84
2023/12/06 05:51:22;;;;;;;2.97;2.60;;;1.10;99.90;;;;;;5055057;28;20399;-83
2023/12/06 05:53:49;;;;;;;3.17;2.20;;;1.10;99.90;;;;;;5059139;28;20179;-80
2023/12/06 05:56:15;;;;;;;2.78;2.33;;;1.10;99.90;;;;;;5068410;28;20170;-81
2023/12/06 05:58:42;;;;;;;2.40;1.98;;;1.10;99.90;;;;;;5068518;28;20029;-80
2023/12/06 06:01:08;;;;;;;5.00;2.58;;;1.10;99.90;;;;;;5045527;28;20028;-80
2023/12/06 06:03:34;;;;;;;2.35;2.15;;;1.10;99.90;;;;;;5044666;28;20064;-82
2023/12/06 06:06:07;;;;;;;2.58;1.92;;;1.10;99.90;;;;;;5056406;28;20029;-80
2023/12/06 06:08:36;;;;;;;6.25;2.20;;;1.10;99.90;;;;;;5065388;28;20770;-80
2023/12/06 06:11:04;;;;;;;61.13;4.90;;;1.10;99.90;;;;;;5034488;28;20033;-80
2023/12/06 06:13:30;;;;;;;51.55;6.70;;;1.10;99.90;;;;;;5078760;28;20024;-81
2023/12/06 06:15:57;;;;;;;7.75;2.40;;;1.10;99.90;;;;;;5059796;28;20037;-84
2023/12/06 06:18:23;;;;;;;19.88;3.13;;;1.10;99.90;;;;;;5067786;28;20390;-82
2023/12/06 06:20:49;;;;;;;5.28;2.15;;;1.10;99.90;;;;;;5049822;28;20116;-83
2023/12/06 06:23:15;;;;;;;63.88;5.43;;;1.10;99.90;;;;;;5050925;28;20044;-85
2023/12/06 06:25:40;;;;;;;37.75;3.88;;;1.10;99.90;;;;;;5057564;28;20063;-85
2023/12/06 06:28:06;;;;;;;2.67;2.25;;;1.10;99.90;;;;;;5025515;28;20059;-82
2023/12/06 06:30:32;;;;;;;117.35;7.57;;;1.10;99.90;;;;;;5058286;28;20051;-82
2023/12/06 06:32:58;;;;;;;24.30;2.65;;;1.10;99.90;;;;;;5006900;28;20072;-84
2023/12/06 06:35:24;;;;;;;16.80;2.92;;;1.10;99.90;;;;;;5018207;28;20048;-83
2023/12/06 06:37:50;;;;;;;113.30;7.13;;;1.10;99.90;;;;;;5065899;28;20021;-84
2023/12/06 06:40:15;;;;;;;86.32;6.03;;;1.10;99.90;;;;;;5039365;28;20033;-83
2023/12/06 06:42:42;;;;;;;56.08;4.18;;;1.10;99.90;;;;;;5050759;28;20406;-84
2023/12/06 06:45:09;;;;;;;25.02;3.13;;;1.10;99.90;;;;;;5050188;28;20033;-85
2023/12/06 06:47:37;;;;;;;29.92;2.85;;;1.10;99.90;;;;;;5049847;28;20763;-83
2023/12/06 06:50:04;;;;;;;95.35;6.22;;;1.10;99.90;;;;;;5034293;28;20036;-84
2023/12/06 06:52:32;;;;;;;34.63;3.55;;;1.10;99.90;;;;;;5049224;28;20067;-84
2023/12/06 06:54:58;;;;;;;33.92;3.67;;;1.10;99.90;;;;;;5035729;28;20024;-83
2023/12/06 06:57:24;;;;;;;14.07;2.20;;;1.10;99.90;;;;;;5058298;28;20024;-83
2023/12/06 06:59:49;;;;;;;27.98;3.47;;;1.10;99.90;;;;;;5040251;28;20371;-83
2023/12/06 07:02:16;;;;;;;23.92;3.13;;;1.10;99.90;;;;;;5036253;28;20036;-84
2023/12/06 07:04:43;;;;;;;35.80;3.72;;;1.10;99.90;;;;;;5064097;28;20029;-83
2023/12/06 07:07:09;;;;;;;1.83;1.65;;;1.10;99.90;;;;;;5032515;28;20099;-83
2023/12/06 07:09:34;;;;;;;91.45;9.50;;;1.10;99.90;;;;;;5045303;28;20047;-83
2023/12/06 07:12:00;;;;;;;34.85;3.63;;;1.10;99.90;;;;;;5049412;28;20032;-84
2023/12/06 07:14:26;;;;;;;58.50;4.80;;;1.00;99.90;;;;;;5057554;28;20052;-83
2023/12/06 07:16:54;;;;;;;18.33;3.08;;;1.00;99.90;;;;;;5041418;28;20108;-83
2023/12/06 07:19:21;;;;;;;48.17;3.92;;;1.00;99.90;;;;;;5032345;28;20414;-83
2023/12/06 07:21:47;;;;;;;4.95;2.60;;;1.00;99.90;;;;;;5035746;28;20479;-83
2023/12/06 07:24:13;;;;;;;20.55;2.75;;;1.10;99.90;;;;;;5037177;28;20033;-84
2023/12/06 07:26:39;;;;;;;2.38;1.90;;;1.00;99.90;;;;;;5052772;28;20035;-84
2023/12/06 07:29:05;;;;;;;4.15;2.45;;;1.00;99.90;;;;;;5037481;28;20097;-84
2023/12/06 07:31:31;;;;;;;2.95;2.55;;;1.00;99.90;;;;;;5058482;28;20025;-82
2023/12/06 07:33:57;;;;;;;3.92;2.58;;;1.00;99.90;;;;;;5050377;28;20033;-82
2023/12/06 07:36:23;;;;;;;3.40;2.30;;;1.10;99.90;;;;;;5019063;28;20040;-83
2023/12/06 07:38:49;;;;;;;2.78;2.20;;;1.10;99.90;;;;;;5049907;28;20024;-84
2023/12/06 07:41:15;;;;;;;2.50;2.15;;;1.10;99.90;;;;;;5035230;28;20037;-83
2023/12/06 07:43:41;;;;;;;1.90;1.70;;;1.00;99.90;;;;;;5038054;28;20021;-84
2023/12/06 07:46:07;;;;;;;3.03;2.17;;;1.00;99.90;;;;;;5041266;28;20096;-83
2023/12/06 07:48:35;;;;;;;2.20;1.70;;;1.10;99.90;;;;;;5056479;28;20384;-84
2023/12/06 07:51:01;;;;;;;2.13;1.88;;;1.10;99.90;;;;;;5047728;28;20029;-83
2023/12/06 07:53:27;;;;;;;2.22;1.80;;;1.10;99.90;;;;;;5063556;28;20029;-83
2023/12/06 07:55:58;;;;;;;2.35;2.15;;;1.10;99.90;;;;;;5041333;28;20051;-83
2023/12/06 07:58:24;;;;;;;2.10;1.60;;;1.10;99.90;;;;;;5049727;28;20036;-83
2023/12/06 08:00:50;;;;;;;2.40;1.67;;;1.10;99.90;;;;;;5054529;28;20036;-83
2023/12/06 08:03:16;;;;;;;2.63;2.03;;;1.10;99.90;;;;;;5049303;28;20037;-83
2023/12/06 08:05:42;;;;;;;2.28;1.88;;;1.10;99.90;;;;;;5050056;28;20120;-83
2023/12/06 08:08:08;;;;;;;2.40;2.00;;;1.10;99.90;;;;;;5046524;28;20057;-82
2023/12/06 08:10:34;;;;;;;2.75;2.17;;;1.10;99.90;;;;;;5064162;28;20029;-84
2023/12/06 08:13:00;;;;;;;2.45;2.13;;;1.10;99.90;;;;;;5034719;28;20553;-82
2023/12/06 08:15:28;;;;;;;2.15;1.95;;;1.10;99.90;;;;;;5051650;28;20025;-83
2023/12/06 08:17:56;;;;;;;2.60;1.90;;;1.20;99.90;;;;;;5048873;28;20025;-83
2023/12/06 08:20:22;;;;;;;4.75;2.17;;;1.20;99.90;;;;;;5054490;28;20498;-83
2023/12/06 08:22:49;;;;;;;2.45;2.15;;;1.20;99.90;;;;;;5050997;28;20063;-83
2023/12/06 08:25:15;;;;;;;2.90;2.55;;;1.20;99.90;;;;;;5034364;28;20021;-83
2023/12/06 08:27:40;;;;;;;2.42;2.22;;;1.20;99.90;;;;;;5058281;28;20037;-83
2023/12/06 08:30:07;;;;;;;2.80;2.22;;;1.20;99.90;;;;;;5039051;28;20056;-83
2023/12/06 08:32:32;;;;;;;2.53;2.17;;;1.20;99.90;;;;;;5036487;28;20040;-84
2023/12/06 08:35:00;;;;;;;2.53;2.25;;;1.20;99.90;;;;;;5034344;28;20079;-82
2023/12/06 08:37:26;;;;;;;4.18;2.33;;;1.20;99.90;;;;;;5034455;28;20058;-84
2023/12/06 08:39:52;;;;;;;2.78;2.30;;;1.20;99.90;;;;;;5027815;28;20033;-83
2023/12/06 08:42:18;;;;;;;4.03;2.95;;;1.20;99.90;;;;;;5051997;28;20021;-83
2023/12/06 08:44:44;;;;;;;5.35;2.92;;;1.30;99.90;;;;;;5052787;28;20031;-83
2023/12/06 08:47:29;;;;;;;7.47;3.37;;;1.30;99.90;;;;;;5051661;28;20044;-84
2023/12/06 08:49:54;;;;;;;6.18;2.88;;;1.40;99.90;;;;;;5045416;28;20025;-82
2023/12/06 08:52:20;;;;;;;4.47;3.13;;;1.40;99.90;;;;;;5028463;28;20060;-83
2023/12/06 08:54:46;;;;;;;6.38;3.53;;;1.40;99.90;;;;;;5033557;28;20025;-84
2023/12/06 08:57:13;;;;;;;7.22;3.97;;;1.50;99.90;;;;;;5037730;28;20562;-83
2023/12/06 08:59:39;;;;;;;9.13;4.47;;;1.50;99.90;;;;;;5047967;28;20251;-84
2023/12/06 09:02:06;;;;;;;8.10;4.15;;;1.50;99.90;;;;;;5039622;28;20037;-84
2023/12/06 09:04:32;;;;;;;6.25;3.88;;;1.50;99.90;;;;;;5059488;28;20038;-85
2023/12/06 09:06:57;;;;;;;8.68;4.72;;;1.50;99.90;;;;;;5034192;28;20084;-83
2023/12/06 09:09:23;;;;;;;11.60;4.55;;;1.60;99.90;;;;;;5057719;28;20028;-82
2023/12/06 09:11:49;;;;;;;6.18;3.85;;;1.60;99.90;;;;;;5038501;28;20029;-82
2023/12/06 09:14:15;;;;;;;6.10;3.95;;;1.50;99.90;;;;;;5041692;28;20021;-83
2023/12/06 09:16:40;;;;;;;6.78;4.07;;;1.50;99.90;;;;;;5037945;28;20116;-83
2023/12/06 09:19:07;;;;;;;8.43;4.43;;;1.50;99.90;;;;;;5065954;28;20024;-84
2023/12/06 09:21:47;;;;;;;8.60;4.72;;;1.50;99.90;;;;;;5037006;28;20561;-81
2023/12/06 09:24:13;;;;;;;7.97;4.75;;;1.50;99.90;;;;;;5033068;28;20063;-83
2023/12/06 09:26:40;;;;;;;9.57;4.78;;;1.50;99.90;;;;;;5051797;28;20029;-83
2023/12/06 09:29:07;;;;;;;6.38;4.40;;;1.50;99.90;;;;;;5050908;28;20096;-82
2023/12/06 09:31:37;;;;;;;9.23;5.35;;;1.50;99.90;;;;;;5054732;28;20534;-82
2023/12/06 09:34:04;;;;;;;8.27;4.80;;;1.50;99.90;;;;;;5029956;28;20029;-82
2023/12/06 09:36:30;;;;;;;9.63;4.50;;;1.50;99.90;;;;;;5040142;28;20171;-82
2023/12/06 09:39:00;;;;;;;11.40;5.70;;;1.50;99.90;;;;;;5061304;28;20495;-84
2023/12/06 09:41:30;;;;;;;8.10;4.93;;;1.50;99.90;;;;;;5031114;28;20438;-81
2023/12/06 09:43:57;;;;;;;11.35;5.00;;;1.50;99.90;;;;;;5046868;28;20044;-84
2023/12/06 09:46:23;;;;;;;6.90;4.38;;;1.60;99.90;;;;;;5038057;28;20040;-83
2023/12/06 09:48:51;;;;;;;8.80;5.07;;;1.60;99.90;;;;;;5045946;28;20092;-82
2023/12/06 09:51:17;;;;;;;8.40;4.80;;;1.60;99.90;;;;;;5048321;28;20029;-83
2023/12/06 09:53:44;;;;;;;8.23;4.88;;;1.60;99.90;;;;;;5060190;28;20068;-84
2023/12/06 09:56:10;;;;;;;7.25;4.50;;;1.60;99.90;;;;;;5047925;28;20017;-85
2023/12/06 09:58:36;;;;;;;8.10;4.95;;;1.60;99.90;;;;;;5035926;28;20116;-83
2023/12/06 10:01:03;;;;;;;7.35;4.28;;;1.60;99.90;;;;;;5016267;28;20045;-87
2023/12/06 10:03:29;;;;;;;7.20;4.65;;;1.60;99.90;;;;;;5040793;28;20036;-85
2023/12/06 10:06:03;;;;;;;15.50;4.43;;;1.60;99.90;;;;;;5056101;28;20609;-87
2023/12/06 10:08:30;;;;;;;47.92;5.35;;;1.70;99.90;;;;;;5057309;28;20045;-87
2023/12/06 10:11:00;;;;;;;8.23;5.57;;;1.70;99.90;;;;;;5033675;28;20113;-86
2023/12/06 10:13:34;;;;;;;9.75;4.10;;;1.70;99.90;;;;;;5026268;28;20067;-87
2023/12/06 10:16:00;;;;;;;8.55;4.50;;;1.60;99.90;;;;;;5033936;28;20044;-87
2023/12/06 10:18:31;;;;;;;49.28;4.75;;;1.70;99.90;;;;;;5055607;28;20028;-85
2023/12/06 10:20:57;;;;;;;5.15;3.60;;;1.60;99.90;;;;;;5029286;28;20025;-82
2023/12/06 10:23:22;;;;;;;46.00;4.53;;;1.70;99.90;;;;;;5026028;28;20035;-86
2023/12/06 10:25:50;;;;;;;54.08;4.40;;;1.60;99.90;;;;;;5033891;28;20607;-85
2023/12/06 10:28:18;;;;;;;54.25;4.63;;;1.70;99.90;;;;;;5023080;28;20045;-84
2023/12/06 10:30:43;;;;;;;6.10;4.03;;;1.60;99.90;;;;;;5026317;28;20086;-85
2023/12/06 10:33:12;;;;;;;23.40;4.53;;;1.60;99.90;;;;;;5013266;28;20032;-85
2023/12/06 10:35:38;;;;;;;5.40;3.60;;;1.60;99.90;;;;;;5031994;28;20057;-85
2023/12/06 10:38:07;;;;;;;88.55;6.18;;;1.70;99.90;;;;;;5015915;28;20060;-87
2023/12/06 10:40:33;;;;;;;11.27;4.15;;;1.70;99.90;;;;;;5010087;28;20047;-87
2023/12/06 10:43:06;;;;;;;7.25;4.65;;;1.70;99.90;;;;;;5019127;28;20397;-84
2023/12/06 10:45:37;;;;;;;8.48;5.38;;;1.80;99.90;;;;;;5043942;28;20040;-86
2023/12/06 10:48:05;;;;;;;8.23;5.05;;;1.80;99.90;;;;;;5052802;28;20044;-86
2023/12/06 10:50:32;;;;;;;7.60;5.47;;;1.80;99.90;;;;;;5041473;28;20037;-86
2023/12/06 10:53:01;;;;;;;8.77;5.78;;;1.80;99.90;;;;;;5047852;28;20033;-86
2023/12/06 10:55:32;;;;;;;7.90;5.32;;;1.90;99.90;;;;;;5038060;28;20025;-87
2023/12/06 10:58:02;;;;;;;7.88;5.05;;;1.90;99.90;;;;;;5016792;28;20517;-87
2023/12/06 11:00:29;;;;;;;8.50;5.30;;;2.00;99.90;;;;;;4995309;28;20037;-88
2023/12/06 11:03:16;;;;;;;7.93;5.03;;;2.00;99.90;;;;;;5037180;28;20040;-86
2023/12/06 11:05:52;;;;;;;8.60;5.57;;;2.10;99.90;;;;;;5013769;28;20055;-86
2023/12/06 11:08:33;;;;;;;9.05;4.72;;;2.00;99.90;;;;;;5030459;28;20029;-85
2023/12/06 11:11:21;;;;;;;7.22;4.88;;;2.10;99.90;;;;;;5040734;28;20148;-88
2023/12/06 11:14:11;;;;;;;7.10;4.85;;;2.10;99.90;;;;;;5067112;28;20061;-85
2023/12/06 11:16:46;;;;;;;10.75;5.18;;;2.10;99.90;;;;;;5026138;28;20075;-87
2023/12/06 11:19:14;;;;;;;114.07;7.15;;;2.10;99.90;;;;;;5016902;28;20622;-88
2023/12/06 11:21:40;;;;;;;32.83;5.18;;;2.20;99.90;;;;;;5033136;28;20057;-87
2023/12/06 11:24:11;;;;;;;42.55;5.93;;;2.10;99.90;;;;;;5020530;28;20521;-88
2023/12/06 11:26:37;;;;;;;7.10;4.95;;;2.10;99.90;;;;;;5016787;28;20029;-88
2023/12/06 11:29:06;;;;;;;6.40;4.70;;;2.10;99.90;;;;;;5026184;28;20032;-87
2023/12/06 11:31:35;;;;;;;6.80;4.65;;;2.10;99.90;;;;;;5023923;28;20032;-86
2023/12/06 11:34:07;;;;;;;6.05;4.45;;;2.20;99.90;;;;;;5042017;28;20021;-87
2023/12/06 11:36:35;;;;;;;6.88;4.72;;;2.10;99.90;;;;;;5025176;28;20033;-86
2023/12/06 11:39:16;;;;;;;6.78;4.70;;;2.20;99.90;;;;;;4993494;28;20077;-88
2023/12/06 11:41:55;;;;;;;5.57;4.30;;;2.20;99.90;;;;;;5010595;28;20035;-88
2023/12/06 11:44:23;;;;;;;7.18;4.53;;;2.20;99.90;;;;;;4995553;28;20061;-85
2023/12/06 11:46:55;;;;;;;5.05;4.07;;;2.10;99.90;;;;;;4997233;28;20036;-85
